Cantonment, FL

5:16 PM CDT on March 28, 2015 (GMT -0500)
Hwy 29/Atmore Cutoff | | Change Station
CLOSE
Current Station
Personal Weather Station
Location: Molino, FL
Elevation: 206 ft
Nearby Weather Stations

Elev 206 ft 30.74 °N, 87.35 °W | Updated 34 seconds ago

Clear
Clear
61.5 °F
Feels Like 61.5 °F
N
2.0
Wind Variable Wind from NNW
Gusts 6.0 mph

Today
High -- | Low -- °F
--% Chance of Precip.
Yesterday
High -- | Low -- °F
Precip. -- in
6:43 AM 7:05 PM
Waxing Gibbous, 66% visible
Pressure 30.18 in
Visibility 10.0 miles
Clouds Clear
Dew Point 38 °F
Humidity 42%
Rainfall 0.00 in
Snow Depth Not available.
UV 3 out of 12
Pollen 9.80 out of 12
Air Quality Not available.
Flu Activity Not available.
METAR KPNS 282153Z 00000KT 10SM CLR 17/00 A3018 RMK AO2 SLP220 T01720000

More Conditions Fewer Conditions

Pressure 30.18 in
Visibility 10.0 miles
Clouds Clear
Dew Point 38 °F
Humidity 42%
Rainfall 0.00 in
Snow Depth Not available.
UV 3 out of 12
Pollen 9.80 out of 12
Air Quality Not available.
Flu Activity Not available.
METAR KPNS 282153Z 00000KT 10SM CLR 17/00 A3018 RMK AO2 SLP220 T01720000

More Conditions Fewer Conditions

10-Day Weather Forecast

Almanac

Astronomy

Mar. 28, 2015 Rise Set
Actual Time
Civil Twilight
Nautical Twilight
Astronomical Twilight
Moon
Length of Visible Light
Length of Day
Tomorrow will be .
, % of the Moon is Illuminated

Today's Extremes

State Highs State Lows

Community

WunderPhotos

Upload Photos

1,809,099 photos uploaded!

WunderBlogs® & News

Nearby

Air Quality

  Air Quality AQ Index Pollutant
Not available.

Snow Depth

Station Depth Elevation

Earthquake Activity

City Distance Mag. Time & Date
Minimum magnitude displayed is 2.5.

Coastal Water Temperatures

Place Temperature

Stations

Nearby Weather Stations

Station Location Temp. Windchill Dew Point Humidity Wind Precip. Elev Updated Type